»·PEaware :: N123YB KSBP-KWJF

N123YB :: KSBP-KWJF

FLIGHT INFORMATION

Flight Status: Arrived
Operator: Privately registered:
United States
More flights under this callsign
Pilot: Yonel B. (11973)
Aircraft: CESSNA 172 SKYHAWK
(C172)
More flights by this aircraft type
Origin: KSBP San Luis Co Regl
United States
Destination: KWJF Gen Fox
United States
More flights between these airports :: More routes between these airports
Route: +WYNNR V25 RZS V12 PMD V137 MOLTT
File this flight plan on PilotEdge
Remarks: IFR PRACTICE
Altitude:
(Current/Filed)
7,000ft
Speed:
(Current/Filed)
110kts
Departed: 08-Jan-18 02:31 PM
Arrived: 08-Jan-18 04:54 PM
Distance/Time
Traveled:
123nm/2:23
Distance/Time
To Go:
Arrived

Flight Plot

Page will automatically refresh every two minutes.

Flight plan parsing failed; only flown route is shown


Map Options




Map Legend


Flown Route
Filed Route
Departure Airport
Arrival Airport
Navaid (VOR, NDB)
Fix

Horizontal Profiles

Position Reports

Time Latitude Longitude Heading Altitude Ground
Speed
08-Jan-18 14:17 35.239101 -120.641755 227 215ft 0kts
08-Jan-18 14:18 35.239101 -120.641755 227 215ft 0kts
08-Jan-18 14:19 35.239101 -120.641755 227 215ft 0kts
08-Jan-18 14:20 35.239101 -120.641755 227 215ft 0kts
08-Jan-18 14:21 35.239101 -120.641755 227 215ft 0kts
08-Jan-18 14:22 35.239101 -120.641755 227 215ft 0kts
08-Jan-18 14:23 35.239101 -120.641755 227 215ft 0kts
08-Jan-18 14:24 35.239101 -120.641755 227 215ft 0kts
08-Jan-18 14:25 35.239101 -120.641755 227 215ft 0kts
08-Jan-18 14:26 35.239101 -120.641755 227 215ft 0kts
08-Jan-18 14:27 35.238132 -120.640685 123 215ft 6kts
08-Jan-18 14:28 35.236678 -120.637939 124 215ft 12kts
08-Jan-18 14:29 35.235090 -120.635156 124 215ft 8kts
08-Jan-18 14:30 35.233743 -120.632792 124 215ft 5kts
08-Jan-18 14:31 35.233261 -120.632142 230 215ft 0kts
08-Jan-18 14:32 35.233261 -120.632142 230 215ft 0kts
08-Jan-18 14:33 35.233261 -120.632142 230 215ft 0kts
08-Jan-18 14:34 35.233253 -120.632154 232 215ft 0kts
08-Jan-18 14:35 35.233245 -120.632318 251 215ft 0kts
08-Jan-18 14:36 35.233245 -120.632318 251 215ft 0kts
08-Jan-18 14:37 35.233959 -120.635092 305 215ft 53kts
08-Jan-18 14:38 35.243505 -120.656966 290 1214ft 75kts
08-Jan-18 14:39 35.253022 -120.681595 297 2230ft 84kts
08-Jan-18 14:40 35.264686 -120.708685 297 3181ft 93kts
08-Jan-18 14:41 35.277596 -120.737469 307 4100ft 100kts
08-Jan-18 14:42 35.292651 -120.731916 101 4901ft 79kts
08-Jan-18 14:43 35.290995 -120.704286 98 5758ft 84kts
08-Jan-18 14:44 35.290194 -120.676023 102 6577ft 84kts
08-Jan-18 14:45 35.288786 -120.647155 103 7040ft 85kts
08-Jan-18 14:46 35.283027 -120.617953 130 6966ft 88kts
08-Jan-18 14:47 35.263652 -120.601537 145 6862ft 86kts
08-Jan-18 14:48 35.244344 -120.585286 140 6858ft 81kts
08-Jan-18 14:49 35.228175 -120.566836 137 6982ft 78kts
08-Jan-18 14:50 35.212388 -120.548309 137 7059ft 80kts
08-Jan-18 14:51 35.196937 -120.527470 139 6976ft 85kts
08-Jan-18 14:52 35.179244 -120.508729 139 6908ft 81kts
08-Jan-18 14:53 35.164527 -120.488064 136 6893ft 79kts
08-Jan-18 14:54 35.148845 -120.470541 145 7028ft 76kts
08-Jan-18 14:55 35.133422 -120.451245 139 7060ft 81kts
08-Jan-18 14:56 35.116496 -120.431989 146 7021ft 83kts
08-Jan-18 14:57 35.099412 -120.413427 138 7015ft 84kts
08-Jan-18 14:58 35.080936 -120.397654 161 6992ft 80kts
08-Jan-18 14:59 35.062247 -120.382567 153 6970ft 81kts
08-Jan-18 15:00 35.043663 -120.367233 149 6944ft 82kts
08-Jan-18 15:01 35.027189 -120.347648 143 6928ft 83kts
08-Jan-18 15:02 35.011423 -120.328381 151 6969ft 79kts
08-Jan-18 15:03 34.995496 -120.309050 146 6976ft 80kts
08-Jan-18 15:04 34.979845 -120.288868 143 7001ft 80kts
08-Jan-18 15:05 34.963629 -120.269736 142 7022ft 79kts
08-Jan-18 15:06 34.946843 -120.251220 148 7007ft 83kts
08-Jan-18 15:07 34.928252 -120.235618 145 7043ft 79kts
08-Jan-18 15:08 34.911288 -120.217275 153 7046ft 79kts
08-Jan-18 15:09 34.893251 -120.201033 153 7067ft 79kts
08-Jan-18 15:10 34.876043 -120.183131 143 7052ft 84kts
08-Jan-18 15:11 34.861789 -120.168108 142 7082ft 81kts
08-Jan-18 15:12 34.841096 -120.148080 140 7081ft 80kts
08-Jan-18 15:13 34.827114 -120.132057 140 7034ft 82kts
08-Jan-18 15:14 34.807448 -120.110932 138 7058ft 77kts
08-Jan-18 15:15 34.793942 -120.094466 141 7011ft 80kts
08-Jan-18 15:16 34.774825 -120.072664 139 7005ft 76kts
08-Jan-18 15:17 34.761488 -120.056763 138 6937ft 82kts
08-Jan-18 15:18 34.744821 -120.038625 136 6916ft 80kts
08-Jan-18 15:19 34.727433 -120.022498 144 6918ft 79kts
08-Jan-18 15:20 34.710703 -120.006261 139 7001ft 75kts
08-Jan-18 15:21 34.694435 -119.989229 144 7041ft 77kts
08-Jan-18 15:22 34.677855 -119.972527 139 7091ft 78kts
08-Jan-18 15:23 34.661146 -119.954865 132 7065ft 82kts
08-Jan-18 15:24 34.645888 -119.933739 136 7000ft 86kts
08-Jan-18 15:25 34.629081 -119.914012 136 6984ft 84kts
08-Jan-18 15:26 34.611396 -119.895691 131 6946ft 85kts
08-Jan-18 15:27 34.592232 -119.879594 152 6922ft 86kts
08-Jan-18 15:28 34.575007 -119.859828 128 6918ft 83kts
08-Jan-18 15:29 34.561145 -119.837227 136 6977ft 83kts
08-Jan-18 15:30 34.543851 -119.818254 139 7035ft 84kts
08-Jan-18 15:31 34.530001 -119.795846 121 7077ft 86kts
08-Jan-18 15:32 34.518342 -119.770147 115 7119ft 88kts
08-Jan-18 15:33 34.520181 -119.739033 94 7166ft 91kts
08-Jan-18 15:34 34.523275 -119.705760 94 7032ft 99kts
08-Jan-18 15:35 34.523294 -119.672171 98 6941ft 98kts
08-Jan-18 15:36 34.523301 -119.638770 95 6857ft 100kts
08-Jan-18 15:37 34.520908 -119.606193 109 6899ft 92kts
08-Jan-18 15:38 34.521229 -119.573810 90 6975ft 97kts
08-Jan-18 15:39 34.525048 -119.540969 91 7064ft 98kts
08-Jan-18 15:40 34.528840 -119.507853 85 7090ft 103kts
08-Jan-18 15:41 34.531082 -119.473758 96 6999ft 102kts
08-Jan-18 15:42 34.531179 -119.439871 110 6921ft 97kts
08-Jan-18 15:43 34.529553 -119.406899 96 6936ft 94kts
08-Jan-18 15:44 34.530090 -119.375429 105 7014ft 91kts
08-Jan-18 15:45 34.533279 -119.343991 87 7080ft 95kts
08-Jan-18 15:46 34.536476 -119.311925 87 7088ft 96kts
08-Jan-18 15:47 34.543996 -119.280249 75 7082ft 101kts
08-Jan-18 15:48 34.552200 -119.247828 84 7019ft 99kts
08-Jan-18 15:49 34.554816 -119.215051 95 6948ft 96kts
08-Jan-18 15:50 34.555066 -119.182708 91 6898ft 95kts
08-Jan-18 15:51 34.558653 -119.151146 87 7063ft 95kts
08-Jan-18 15:52 34.564166 -119.118935 86 7111ft 101kts
08-Jan-18 15:53 34.568456 -119.083770 88 6962ft 103kts
08-Jan-18 15:54 34.571415 -119.049690 90 6939ft 99kts
08-Jan-18 15:55 34.573470 -119.017709 85 7080ft 96kts
08-Jan-18 15:56 34.576356 -118.984730 94 7084ft 98kts
08-Jan-18 15:57 34.575940 -118.951821 91 7075ft 101kts
08-Jan-18 15:58 34.578642 -118.917881 96 7048ft 99kts
08-Jan-18 15:59 34.576908 -118.884567 92 7002ft 102kts
08-Jan-18 16:00 34.580031 -118.850590 86 7000ft 103kts
08-Jan-18 16:01 34.579336 -118.817453 103 6979ft 99kts
08-Jan-18 16:02 34.577951 -118.783986 87 6970ft 102kts
08-Jan-18 16:03 34.581141 -118.750416 95 6946ft 101kts
08-Jan-18 16:04 34.584779 -118.716402 89 6901ft 100kts
08-Jan-18 16:05 34.584493 -118.682860 91 6836ft 100kts
08-Jan-18 16:06 34.588344 -118.649406 92 6868ft 100kts
08-Jan-18 16:07 34.591499 -118.611598 73 7450ft 114kts
08-Jan-18 16:08 34.598474 -118.573785 81 8157ft 115kts
08-Jan-18 16:09 34.607131 -118.536254 80 8819ft 116kts
08-Jan-18 16:10 34.610760 -118.497278 90 9029ft 118kts
08-Jan-18 16:11 34.613328 -118.457451 97 9008ft 117kts
08-Jan-18 16:12 34.614394 -118.418527 88 9009ft 117kts
08-Jan-18 16:13 34.616267 -118.379540 92 9035ft 115kts
08-Jan-18 16:14 34.622082 -118.340804 94 9065ft 114kts
08-Jan-18 16:15 34.622533 -118.301508 95 9022ft 116kts
08-Jan-18 16:16 34.622679 -118.262004 96 8983ft 118kts
08-Jan-18 16:17 34.621788 -118.222061 91 8950ft 120kts
08-Jan-18 16:18 34.622653 -118.181276 89 8913ft 122kts
08-Jan-18 16:19 34.622749 -118.139703 94 8824ft 124kts
08-Jan-18 16:20 34.619484 -118.098861 93 8789ft 118kts
08-Jan-18 16:21 34.631711 -118.067645 355 8879ft 103kts
08-Jan-18 16:22 34.647137 -118.092376 303 8709ft 107kts
08-Jan-18 16:23 34.659103 -118.121727 295 8806ft 99kts
08-Jan-18 16:24 34.672208 -118.152743 290 8317ft 99kts
08-Jan-18 16:25 34.686341 -118.180913 317 8230ft 105kts
08-Jan-18 16:26 34.714842 -118.171444 23 8449ft 103kts
08-Jan-18 16:27 34.734539 -118.146769 98 8743ft 74kts
08-Jan-18 16:28 34.732733 -118.108876 110 8485ft 116kts
08-Jan-18 16:29 34.720752 -118.072544 114 8479ft 116kts
08-Jan-18 16:30 34.712531 -118.034418 105 8372ft 116kts
08-Jan-18 16:31 34.707138 -117.995743 104 8181ft 116kts
08-Jan-18 16:32 34.701549 -117.957161 112 7982ft 115kts
08-Jan-18 16:33 34.694401 -117.919319 109 7784ft 116kts
08-Jan-18 16:34 34.691156 -117.879783 105 7579ft 117kts
08-Jan-18 16:35 34.689616 -117.869266 261 7063ft 65kts
08-Jan-18 16:36 34.703446 -117.892793 288 6790ft 82kts
08-Jan-18 16:37 34.713945 -117.920398 289 6280ft 93kts
08-Jan-18 16:38 34.718913 -117.949866 274 5899ft 88kts
08-Jan-18 16:39 34.713664 -117.978367 239 5617ft 89kts
08-Jan-18 16:40 34.695379 -117.999006 225 5227ft 91kts
08-Jan-18 16:41 34.706303 -118.003384 85 5176ft 119kts
08-Jan-18 16:42 34.701253 -117.963386 109 5125ft 126kts
08-Jan-18 16:43 34.693391 -117.922032 106 4933ft 125kts
08-Jan-18 16:44 34.685414 -117.882096 105 5035ft 122kts
08-Jan-18 16:45 34.678335 -117.841382 103 5040ft 123kts
08-Jan-18 16:46 34.688389 -117.806665 4 5010ft 107kts
08-Jan-18 16:47 34.704809 -117.830768 297 5011ft 92kts
08-Jan-18 16:48 34.714881 -117.859424 290 5038ft 93kts
08-Jan-18 16:49 34.725976 -117.888596 290 5033ft 94kts
08-Jan-18 16:50 34.736446 -117.918033 284 5031ft 95kts
08-Jan-18 16:51 34.738456 -117.949703 279 5008ft 94kts
08-Jan-18 16:52 34.741711 -117.981356 274 4622ft 94kts
08-Jan-18 16:53 34.743632 -118.013572 266 4155ft 96kts
08-Jan-18 16:54 34.744415 -118.045717 277 3832ft 96kts
08-Jan-18 16:55 34.746460 -118.078191 273 3680ft 96kts
08-Jan-18 16:56 34.749028 -118.110346 275 3645ft 96kts
08-Jan-18 16:57 34.749790 -118.142748 268 3313ft 96kts
08-Jan-18 16:58 34.753132 -118.175247 265 2789ft 90kts
08-Jan-18 16:59 34.746631 -118.197805 252 2516ft 64kts
08-Jan-18 17:00 34.742238 -118.213823 235 2355ft 18kts
08-Jan-18 17:01 34.741182 -118.214641 131 2355ft 6kts
08-Jan-18 17:02 34.740447 -118.213631 260 2355ft 0kts

Navigation Log

Ident Type
Flight plan parsing failed, navigation log unavailable